createdAt,value
2023-05-09T00:02:38.281Z,16.53
2023-05-09T00:06:40.953Z,16.47
2023-05-09T00:10:44.964Z,16.47
2023-05-09T00:14:51.498Z,16.42
2023-05-09T00:18:54.156Z,16.29
2023-05-09T00:22:56.826Z,16.25
2023-05-09T00:27:01.566Z,16.26
2023-05-09T00:31:04.785Z,16.26
2023-05-09T00:35:08.746Z,16.19
2023-05-09T00:39:12.474Z,16.19
2023-05-09T00:43:16.794Z,16.08
2023-05-09T00:47:19.907Z,16.02
2023-05-09T00:51:23.041Z,15.99
2023-05-09T00:55:25.870Z,16.07
2023-05-09T00:59:30.197Z,16.18
2023-05-09T01:03:33.461Z,16.24
2023-05-09T01:07:42.373Z,16.29
2023-05-09T01:11:49.816Z,16.34
2023-05-09T01:15:59.950Z,16.35
2023-05-09T01:20:11.567Z,16.36
2023-05-09T01:24:33.246Z,16.37
2023-05-09T01:28:45.611Z,16.37
2023-05-09T01:32:52.934Z,16.32
2023-05-09T01:37:00.701Z,16.28
2023-05-09T01:41:05.313Z,16.18
2023-05-09T01:45:10.705Z,16.14
2023-05-09T01:49:14.839Z,16.15
2023-05-09T01:53:18.764Z,16.15
2023-05-09T01:57:22.690Z,16.16
2023-05-09T02:01:26.228Z,16.17
2023-05-09T02:05:31.936Z,16.11
2023-05-09T02:09:34.716Z,15.98
2023-05-09T02:13:38.258Z,15.82
2023-05-09T02:17:42.191Z,15.79
2023-05-09T02:21:46.277Z,15.85
2023-05-09T02:25:49.218Z,15.85
2023-05-09T02:29:56.208Z,15.82
2023-05-09T02:33:59.464Z,15.78
2023-05-09T02:38:04.202Z,15.80
2023-05-09T02:42:09.054Z,15.85
2023-05-09T02:46:11.904Z,15.87
2023-05-09T02:50:14.783Z,15.90
2023-05-09T02:54:19.494Z,15.97
2023-05-09T02:58:22.175Z,15.99
2023-05-09T03:02:24.922Z,15.99
2023-05-09T03:06:28.028Z,15.98
2023-05-09T03:10:32.041Z,16.00
2023-05-09T03:14:34.925Z,16.01
2023-05-09T03:18:38.917Z,16.01
2023-05-09T03:22:41.729Z,16.00
2023-05-09T03:26:48.368Z,15.87
2023-05-09T03:30:51.635Z,15.87
2023-05-09T03:34:57.405Z,15.90
2023-05-09T03:39:01.157Z,15.95
2023-05-09T03:43:05.699Z,15.97
2023-05-09T03:47:08.812Z,15.95
2023-05-09T03:51:15.388Z,15.96
2023-05-09T03:55:20.692Z,15.97
2023-05-09T03:59:24.852Z,15.97
2023-05-09T04:03:27.918Z,15.92
2023-05-09T04:07:31.127Z,15.77
2023-05-09T04:11:34.333Z,15.82
2023-05-09T04:15:38.932Z,15.84
2023-05-09T04:19:42.238Z,15.91
2023-05-09T04:23:45.437Z,15.94
2023-05-09T04:27:49.638Z,15.97
2023-05-09T04:31:54.222Z,16.00
2023-05-09T04:36:00.256Z,16.04
2023-05-09T04:40:04.313Z,16.04
2023-05-09T04:44:14.435Z,16.11
2023-05-09T04:48:19.779Z,16.19
2023-05-09T04:52:22.417Z,16.20
2023-05-09T04:56:25.120Z,16.23
2023-05-09T05:00:28.548Z,16.27
2023-05-09T05:04:32.741Z,16.29
2023-05-09T05:08:36.850Z,16.28
2023-05-09T05:12:39.538Z,16.28
2023-05-09T05:16:45.273Z,16.28
2023-05-09T05:20:49.640Z,16.32
2023-05-09T05:24:52.550Z,16.34
2023-05-09T05:28:57.036Z,16.31
2023-05-09T05:33:00.884Z,16.33
2023-05-09T05:37:05.013Z,16.35
2023-05-09T05:41:11.102Z,16.36
2023-05-09T05:45:15.409Z,16.41
2023-05-09T05:49:24.811Z,16.43
2023-05-09T05:53:30.362Z,16.41
2023-05-09T05:57:34.516Z,16.41
2023-05-09T06:01:37.632Z,16.33
2023-05-09T06:05:43.135Z,16.26
2023-05-09T06:09:48.176Z,16.30
2023-05-09T06:13:50.991Z,16.34
2023-05-09T06:17:53.766Z,16.37
2023-05-09T06:21:58.465Z,16.40
2023-05-09T06:26:02.478Z,16.45
2023-05-09T06:30:14.238Z,16.47
2023-05-09T06:34:27.285Z,16.59
2023-05-09T06:38:29.932Z,16.74
2023-05-09T06:42:34.017Z,16.80
2023-05-09T06:46:36.704Z,16.88
2023-05-09T06:50:39.369Z,17.01
2023-05-09T06:54:42.053Z,17.17
2023-05-09T06:58:46.108Z,17.30
2023-05-09T07:02:48.751Z,17.57
2023-05-09T07:06:51.418Z,17.88
2023-05-09T07:10:54.360Z,18.01
2023-05-09T07:14:58.618Z,18.10
2023-05-09T07:19:01.258Z,18.12
2023-05-09T07:23:04.194Z,18.14
2023-05-09T07:27:06.885Z,18.18
2023-05-09T07:31:10.944Z,18.31
2023-05-09T07:35:13.740Z,18.27
2023-05-09T07:39:16.747Z,18.24
2023-05-09T07:43:19.471Z,18.20
2023-05-09T07:47:23.602Z,18.20
2023-05-09T07:51:26.348Z,18.23
2023-05-09T07:55:29.050Z,18.29
2023-05-09T07:59:31.859Z,18.38
2023-05-09T08:03:35.902Z,18.34
2023-05-09T08:07:38.727Z,18.36
2023-05-09T08:11:41.513Z,18.42
2023-05-09T08:15:44.222Z,18.40
2023-05-09T08:19:48.247Z,18.42
2023-05-09T08:23:52.353Z,18.44
2023-05-09T08:27:55.025Z,18.43
2023-05-09T08:31:57.816Z,18.38
2023-05-09T08:36:02.391Z,18.41
2023-05-09T08:40:07.366Z,18.57
2023-05-09T08:44:10.828Z,18.83
2023-05-09T08:48:14.739Z,18.93
2023-05-09T08:52:19.325Z,19.02
2023-05-09T08:56:22.261Z,18.95
2023-05-09T09:00:26.639Z,19.06
2023-05-09T09:04:29.921Z,19.02
2023-05-09T09:08:36.269Z,19.04
2023-05-09T09:12:40.190Z,19.39
2023-05-09T09:16:45.595Z,19.80
2023-05-09T09:20:51.165Z,20.19
2023-05-09T09:24:55.304Z,20.35
2023-05-09T09:28:58.531Z,20.53
2023-05-09T09:33:01.327Z,20.63
2023-05-09T09:37:04.009Z,20.72
2023-05-09T09:41:08.068Z,20.47
2023-05-09T09:45:12.751Z,20.39
2023-05-09T09:49:18.456Z,20.66
2023-05-09T09:53:21.856Z,20.93
2023-05-09T09:57:39.937Z,20.95
2023-05-09T10:02:00.175Z,21.38
2023-05-09T10:06:03.104Z,21.87
2023-05-09T10:10:06.781Z,21.97
2023-05-09T10:14:11.529Z,21.95
2023-05-09T10:18:19.755Z,22.05
2023-05-09T10:22:23.136Z,21.99
2023-05-09T10:26:29.106Z,22.08
2023-05-09T10:30:41.075Z,21.99
2023-05-09T10:34:48.665Z,22.06
2023-05-09T10:38:54.320Z,22.44
2023-05-09T10:42:57.056Z,22.50
2023-05-09T10:47:02.574Z,22.36
2023-05-09T10:51:05.759Z,22.05
2023-05-09T10:55:11.414Z,22.08
2023-05-09T10:59:37.356Z,22.07
2023-05-09T11:03:58.379Z,21.71
2023-05-09T11:08:26.392Z,21.38
2023-05-09T11:12:29.034Z,21.21
2023-05-09T11:16:32.018Z,21.18
2023-05-09T11:20:36.606Z,21.16
2023-05-09T11:24:40.078Z,21.15
2023-05-09T11:28:42.880Z,21.20
2023-05-09T11:32:47.760Z,21.13
2023-05-09T11:36:51.799Z,21.20
2023-05-09T11:40:55.927Z,21.38
2023-05-09T11:44:59.412Z,21.57
2023-05-09T11:49:03.755Z,21.55
2023-05-09T11:53:12.343Z,21.84
2023-05-09T11:57:17.371Z,22.06
2023-05-09T12:01:21.440Z,22.30
2023-05-09T12:05:24.526Z,22.31
2023-05-09T12:09:30.830Z,22.42
2023-05-09T12:13:33.524Z,22.65
2023-05-09T12:17:36.948Z,22.61
2023-05-09T12:21:41.274Z,22.67
2023-05-09T12:25:50.223Z,22.75
2023-05-09T12:29:54.889Z,22.79
2023-05-09T12:33:57.878Z,22.82
2023-05-09T12:38:01.508Z,22.76
2023-05-09T12:42:13.180Z,22.95
2023-05-09T12:46:19.000Z,23.04
2023-05-09T12:50:21.755Z,23.10
2023-05-09T12:54:25.262Z,23.15
2023-05-09T12:58:32.079Z,23.04
2023-05-09T13:02:35.674Z,22.78
2023-05-09T13:06:49.047Z,22.49
2023-05-09T13:10:57.724Z,22.11
2023-05-09T13:15:11.323Z,21.91
2023-05-09T13:19:14.446Z,21.83
2023-05-09T13:23:17.166Z,21.65
2023-05-09T13:27:19.745Z,21.62
2023-05-09T13:31:23.991Z,21.54
2023-05-09T13:35:26.969Z,21.40
2023-05-09T13:39:29.603Z,21.46
2023-05-09T13:43:32.431Z,21.40
2023-05-09T13:47:38.041Z,21.40
2023-05-09T13:51:41.785Z,21.45
2023-05-09T13:55:45.620Z,21.39
2023-05-09T13:59:50.698Z,21.46
2023-05-09T14:03:54.713Z,21.51
2023-05-09T14:07:57.522Z,21.32
2023-05-09T14:12:00.158Z,21.31
2023-05-09T14:16:02.906Z,21.15
2023-05-09T14:20:08.369Z,21.08
2023-05-09T14:24:14.213Z,20.98
2023-05-09T14:28:18.473Z,20.92
2023-05-09T14:32:21.202Z,20.86
2023-05-09T14:36:25.215Z,20.55
2023-05-09T14:40:31.637Z,20.17
2023-05-09T14:44:34.273Z,19.79
2023-05-09T14:48:36.911Z,19.12
2023-05-09T14:52:41.021Z,18.82
2023-05-09T14:56:43.779Z,18.62
2023-05-09T15:00:47.294Z,18.40
2023-05-09T15:04:50.009Z,18.34
2023-05-09T15:08:54.155Z,18.18
2023-05-09T15:12:56.831Z,18.09
2023-05-09T15:17:02.726Z,17.91
2023-05-09T15:21:05.909Z,17.81
2023-05-09T15:25:11.032Z,17.74
2023-05-09T15:29:13.942Z,17.56
2023-05-09T15:33:17.568Z,17.59
2023-05-09T15:37:20.256Z,17.51
2023-05-09T15:41:24.325Z,17.51
2023-05-09T15:45:26.953Z,17.30
2023-05-09T15:49:29.937Z,17.38
2023-05-09T15:53:32.644Z,17.39
2023-05-09T15:57:36.690Z,17.41
2023-05-09T16:01:39.464Z,17.36
2023-05-09T16:05:43.715Z,17.29
2023-05-09T16:09:56.858Z,17.20
2023-05-09T16:14:01.049Z,17.15
2023-05-09T16:18:03.793Z,16.99
2023-05-09T16:22:06.580Z,17.09
2023-05-09T16:26:09.213Z,17.06
2023-05-09T16:30:14.724Z,17.15
2023-05-09T16:34:17.638Z,17.16
2023-05-09T16:38:20.552Z,17.17
2023-05-09T16:42:23.454Z,17.19
2023-05-09T16:46:27.492Z,17.19
2023-05-09T16:50:30.208Z,17.24
2023-05-09T16:54:32.980Z,17.27
2023-05-09T16:58:36.810Z,17.27
2023-05-09T17:02:41.564Z,17.25
2023-05-09T17:06:44.251Z,17.24
2023-05-09T17:10:47.077Z,17.18
2023-05-09T17:14:49.795Z,17.17
2023-05-09T17:18:53.796Z,17.10
2023-05-09T17:22:56.505Z,17.03
2023-05-09T17:26:59.700Z,16.95
2023-05-09T17:31:03.307Z,16.97
2023-05-09T17:35:08.224Z,16.92
2023-05-09T17:39:11.372Z,16.84
2023-05-09T17:43:14.158Z,16.77
2023-05-09T17:47:17.248Z,16.77
2023-05-09T17:51:21.856Z,16.77
2023-05-09T17:55:24.505Z,16.78
2023-05-09T17:59:27.139Z,16.69
2023-05-09T18:03:32.119Z,16.59
2023-05-09T18:07:36.411Z,16.54
2023-05-09T18:11:39.445Z,16.52
2023-05-09T18:15:42.140Z,16.46
2023-05-09T18:19:44.832Z,16.47
2023-05-09T18:23:48.807Z,16.44
2023-05-09T18:27:51.637Z,16.34
2023-05-09T18:31:56.012Z,16.33
2023-05-09T18:35:58.922Z,16.34
2023-05-09T18:40:03.159Z,16.32
2023-05-09T18:44:06.156Z,16.31
2023-05-09T18:48:08.784Z,16.29
2023-05-09T18:52:11.608Z,16.25
2023-05-09T18:56:17.162Z,16.21
2023-05-09T19:00:19.942Z,16.20
2023-05-09T19:04:22.719Z,16.15
2023-05-09T19:08:26.128Z,16.12
2023-05-09T19:12:30.181Z,16.11
2023-05-09T19:16:33.006Z,16.15
2023-05-09T19:20:35.731Z,16.20
2023-05-09T19:24:54.630Z,16.21
2023-05-09T19:29:00.591Z,16.12
2023-05-09T19:33:03.305Z,16.07
2023-05-09T19:37:06.093Z,16.05
2023-05-09T19:41:08.738Z,16.03
2023-05-09T19:45:13.439Z,15.99
2023-05-09T19:49:18.018Z,16.01
2023-05-09T19:53:20.860Z,16.00
2023-05-09T19:57:23.962Z,15.95
2023-05-09T20:01:28.244Z,15.94
2023-05-09T20:05:31.048Z,15.90
2023-05-09T20:09:33.896Z,15.88
2023-05-09T20:13:36.587Z,15.89
2023-05-09T20:17:40.617Z,15.89
2023-05-09T20:21:43.529Z,15.84
2023-05-09T20:25:46.161Z,15.83
2023-05-09T20:29:48.810Z,15.79
2023-05-09T20:33:54.468Z,15.63
2023-05-09T20:37:57.202Z,15.61
2023-05-09T20:42:02.259Z,15.55
2023-05-09T20:46:05.170Z,15.56
2023-05-09T20:50:10.380Z,15.58
2023-05-09T20:54:13.060Z,15.63
2023-05-09T20:58:15.710Z,15.61
2023-05-09T21:02:18.418Z,15.62
2023-05-09T21:06:22.444Z,15.63
2023-05-09T21:10:25.858Z,15.66
2023-05-09T21:14:28.573Z,15.69
2023-05-09T21:18:31.278Z,15.69
2023-05-09T21:22:35.259Z,15.68
2023-05-09T21:26:37.871Z,15.62
2023-05-09T21:30:40.524Z,15.51
2023-05-09T21:34:43.804Z,15.51
2023-05-09T21:38:47.754Z,15.52
2023-05-09T21:42:50.564Z,15.54
2023-05-09T21:46:53.268Z,15.59
2023-05-09T21:50:56.008Z,15.62
2023-05-09T21:55:00.419Z,15.64
2023-05-09T21:59:03.070Z,15.66
2023-05-09T22:03:05.864Z,15.67
2023-05-09T22:07:08.842Z,15.65
2023-05-09T22:11:14.648Z,15.61
2023-05-09T22:15:17.833Z,15.65
2023-05-09T22:19:20.698Z,15.66
2023-05-09T22:23:23.313Z,15.64
2023-05-09T22:27:27.613Z,15.61
2023-05-09T22:31:30.280Z,15.60
2023-05-09T22:35:32.946Z,15.56
2023-05-09T22:39:35.559Z,15.54
2023-05-09T22:43:39.908Z,15.54
2023-05-09T22:47:42.731Z,15.46
2023-05-09T22:51:45.601Z,15.42
2023-05-09T22:55:48.280Z,15.34
2023-05-09T22:59:53.379Z,15.32
2023-05-09T23:03:56.040Z,15.32
2023-05-09T23:07:58.763Z,15.32
2023-05-09T23:12:02.582Z,15.33
2023-05-09T23:16:07.304Z,15.27
2023-05-09T23:20:11.531Z,15.25
2023-05-09T23:24:14.157Z,15.16
2023-05-09T23:28:16.828Z,15.08
2023-05-09T23:32:20.919Z,15.07
2023-05-09T23:36:23.611Z,15.02
2023-05-09T23:40:26.307Z,14.99
2023-05-09T23:44:28.976Z,15.07
2023-05-09T23:48:32.964Z,15.11
2023-05-09T23:52:35.914Z,15.12
2023-05-09T23:56:38.643Z,15.09
